sensor_id;sensor_type;location;lat;lon;timestamp;P1;durP1;ratioP1;P2;durP2;ratioP2
19903;SDS011;10114;50.970;4.962;2023-04-15T00:01:23;10.10;;;4.22;;
19903;SDS011;10114;50.970;4.962;2023-04-15T00:03:52;10.38;;;4.53;;
19903;SDS011;10114;50.970;4.962;2023-04-15T00:06:19;10.60;;;4.38;;
19903;SDS011;10114;50.970;4.962;2023-04-15T00:08:45;9.70;;;3.92;;
19903;SDS011;10114;50.970;4.962;2023-04-15T00:11:12;10.45;;;3.90;;
19903;SDS011;10114;50.970;4.962;2023-04-15T00:13:38;10.63;;;3.97;;
19903;SDS011;10114;50.970;4.962;2023-04-15T00:16:05;8.85;;;3.90;;
19903;SDS011;10114;50.970;4.962;2023-04-15T00:18:32;9.52;;;4.10;;
19903;SDS011;10114;50.970;4.962;2023-04-15T00:20:58;11.32;;;4.13;;
19903;SDS011;10114;50.970;4.962;2023-04-15T00:23:24;7.30;;;3.50;;
19903;SDS011;10114;50.970;4.962;2023-04-15T00:25:50;12.20;;;4.10;;
19903;SDS011;10114;50.970;4.962;2023-04-15T00:28:16;9.82;;;3.50;;
19903;SDS011;10114;50.970;4.962;2023-04-15T00:30:43;9.63;;;3.92;;
19903;SDS011;10114;50.970;4.962;2023-04-15T00:33:09;9.77;;;4.22;;
19903;SDS011;10114;50.970;4.962;2023-04-15T00:35:35;14.95;;;4.88;;
19903;SDS011;10114;50.970;4.962;2023-04-15T00:38:02;15.80;;;7.35;;
19903;SDS011;10114;50.970;4.962;2023-04-15T00:40:28;13.68;;;5.22;;
19903;SDS011;10114;50.970;4.962;2023-04-15T00:42:54;10.52;;;4.03;;
19903;SDS011;10114;50.970;4.962;2023-04-15T00:45:20;10.27;;;3.70;;
19903;SDS011;10114;50.970;4.962;2023-04-15T00:47:47;8.82;;;3.58;;
19903;SDS011;10114;50.970;4.962;2023-04-15T00:50:13;8.07;;;3.08;;
19903;SDS011;10114;50.970;4.962;2023-04-15T00:52:39;7.88;;;3.00;;
19903;SDS011;10114;50.970;4.962;2023-04-15T00:55:06;9.95;;;3.13;;
19903;SDS011;10114;50.970;4.962;2023-04-15T00:57:34;8.23;;;3.35;;
19903;SDS011;10114;50.970;4.962;2023-04-15T01:00:00;8.30;;;3.35;;
19903;SDS011;10114;50.970;4.962;2023-04-15T01:02:28;8.80;;;3.45;;
19903;SDS011;10114;50.970;4.962;2023-04-15T01:04:56;7.00;;;3.58;;
19903;SDS011;10114;50.970;4.962;2023-04-15T01:07:22;8.35;;;3.00;;
19903;SDS011;10114;50.970;4.962;2023-04-15T01:09:48;11.18;;;2.95;;
19903;SDS011;10114;50.970;4.962;2023-04-15T01:12:14;7.55;;;3.10;;
19903;SDS011;10114;50.970;4.962;2023-04-15T01:14:41;8.90;;;3.70;;
19903;SDS011;10114;50.970;4.962;2023-04-15T01:17:07;9.93;;;3.75;;
19903;SDS011;10114;50.970;4.962;2023-04-15T01:19:35;11.38;;;3.60;;
19903;SDS011;10114;50.970;4.962;2023-04-15T01:22:01;9.63;;;3.70;;
19903;SDS011;10114;50.970;4.962;2023-04-15T01:24:27;9.18;;;3.55;;
19903;SDS011;10114;50.970;4.962;2023-04-15T01:26:55;9.38;;;2.90;;
19903;SDS011;10114;50.970;4.962;2023-04-15T01:29:21;8.48;;;3.50;;
19903;SDS011;10114;50.970;4.962;2023-04-15T01:31:48;8.45;;;3.10;;
19903;SDS011;10114;50.970;4.962;2023-04-15T01:34:15;6.50;;;2.65;;
19903;SDS011;10114;50.970;4.962;2023-04-15T01:36:42;9.00;;;3.30;;
19903;SDS011;10114;50.970;4.962;2023-04-15T01:39:08;6.55;;;2.90;;
19903;SDS011;10114;50.970;4.962;2023-04-15T01:41:34;9.63;;;2.90;;
19903;SDS011;10114;50.970;4.962;2023-04-15T01:44:00;6.97;;;3.22;;
19903;SDS011;10114;50.970;4.962;2023-04-15T01:46:26;8.77;;;2.65;;
19903;SDS011;10114;50.970;4.962;2023-04-15T01:48:52;9.73;;;3.17;;
19903;SDS011;10114;50.970;4.962;2023-04-15T01:51:18;10.25;;;4.20;;
19903;SDS011;10114;50.970;4.962;2023-04-15T01:53:44;7.05;;;2.63;;
19903;SDS011;10114;50.970;4.962;2023-04-15T01:56:10;8.93;;;2.60;;
19903;SDS011;10114;50.970;4.962;2023-04-15T01:58:36;11.80;;;3.95;;
19903;SDS011;10114;50.970;4.962;2023-04-15T02:01:04;7.65;;;3.78;;
19903;SDS011;10114;50.970;4.962;2023-04-15T02:03:31;8.60;;;3.40;;
19903;SDS011;10114;50.970;4.962;2023-04-15T02:05:57;8.93;;;2.88;;
19903;SDS011;10114;50.970;4.962;2023-04-15T02:08:23;6.95;;;2.97;;
19903;SDS011;10114;50.970;4.962;2023-04-15T02:10:49;9.63;;;2.92;;
19903;SDS011;10114;50.970;4.962;2023-04-15T02:13:15;8.63;;;2.75;;
19903;SDS011;10114;50.970;4.962;2023-04-15T02:15:45;8.30;;;3.22;;
19903;SDS011;10114;50.970;4.962;2023-04-15T02:18:12;10.88;;;2.83;;
19903;SDS011;10114;50.970;4.962;2023-04-15T02:20:38;10.55;;;3.22;;
19903;SDS011;10114;50.970;4.962;2023-04-15T02:23:04;6.78;;;2.85;;
19903;SDS011;10114;50.970;4.962;2023-04-15T02:25:31;8.77;;;3.10;;
19903;SDS011;10114;50.970;4.962;2023-04-15T02:27:57;9.63;;;2.92;;
19903;SDS011;10114;50.970;4.962;2023-04-15T02:30:23;8.07;;;3.13;;
19903;SDS011;10114;50.970;4.962;2023-04-15T02:32:50;7.07;;;2.78;;
19903;SDS011;10114;50.970;4.962;2023-04-15T02:35:16;7.20;;;2.85;;
19903;SDS011;10114;50.970;4.962;2023-04-15T02:37:43;8.10;;;2.95;;
19903;SDS011;10114;50.970;4.962;2023-04-15T02:40:10;7.50;;;2.88;;
19903;SDS011;10114;50.970;4.962;2023-04-15T02:42:39;11.20;;;3.17;;
19903;SDS011;10114;50.970;4.962;2023-04-15T02:45:06;7.07;;;3.10;;
19903;SDS011;10114;50.970;4.962;2023-04-15T02:47:32;6.03;;;2.75;;
19903;SDS011;10114;50.970;4.962;2023-04-15T02:49:58;6.93;;;3.22;;
19903;SDS011;10114;50.970;4.962;2023-04-15T02:52:25;8.05;;;2.92;;
19903;SDS011;10114;50.970;4.962;2023-04-15T02:54:51;8.75;;;3.08;;
19903;SDS011;10114;50.970;4.962;2023-04-15T02:57:24;8.40;;;2.85;;
19903;SDS011;10114;50.970;4.962;2023-04-15T02:59:51;8.25;;;2.58;;
19903;SDS011;10114;50.970;4.962;2023-04-15T03:02:17;7.90;;;3.25;;
19903;SDS011;10114;50.970;4.962;2023-04-15T03:04:43;11.52;;;3.90;;
19903;SDS011;10114;50.970;4.962;2023-04-15T03:07:09;9.90;;;2.97;;
19903;SDS011;10114;50.970;4.962;2023-04-15T03:09:35;7.70;;;2.67;;
19903;SDS011;10114;50.970;4.962;2023-04-15T03:12:03;7.65;;;2.95;;
19903;SDS011;10114;50.970;4.962;2023-04-15T03:14:29;8.93;;;2.58;;
19903;SDS011;10114;50.970;4.962;2023-04-15T03:16:55;7.32;;;3.13;;
19903;SDS011;10114;50.970;4.962;2023-04-15T03:19:23;10.25;;;3.35;;
19903;SDS011;10114;50.970;4.962;2023-04-15T03:21:49;10.40;;;3.45;;
19903;SDS011;10114;50.970;4.962;2023-04-15T03:24:16;9.50;;;2.97;;
19903;SDS011;10114;50.970;4.962;2023-04-15T03:26:42;6.63;;;2.88;;
19903;SDS011;10114;50.970;4.962;2023-04-15T03:29:08;6.82;;;2.90;;
19903;SDS011;10114;50.970;4.962;2023-04-15T03:31:34;6.15;;;2.40;;
19903;SDS011;10114;50.970;4.962;2023-04-15T03:34:00;10.05;;;2.90;;
19903;SDS011;10114;50.970;4.962;2023-04-15T03:36:27;6.75;;;2.67;;
19903;SDS011;10114;50.970;4.962;2023-04-15T03:38:56;8.45;;;2.45;;
19903;SDS011;10114;50.970;4.962;2023-04-15T03:41:22;6.55;;;2.30;;
19903;SDS011;10114;50.970;4.962;2023-04-15T03:43:48;5.93;;;2.38;;
19903;SDS011;10114;50.970;4.962;2023-04-15T03:46:16;4.97;;;2.28;;
19903;SDS011;10114;50.970;4.962;2023-04-15T03:48:42;9.05;;;2.55;;
19903;SDS011;10114;50.970;4.962;2023-04-15T03:51:08;6.70;;;2.30;;
19903;SDS011;10114;50.970;4.962;2023-04-15T03:53:34;8.55;;;2.75;;
19903;SDS011;10114;50.970;4.962;2023-04-15T03:56:00;9.25;;;2.85;;
19903;SDS011;10114;50.970;4.962;2023-04-15T03:58:26;7.30;;;2.40;;
19903;SDS011;10114;50.970;4.962;2023-04-15T04:00:52;9.05;;;2.58;;
19903;SDS011;10114;50.970;4.962;2023-04-15T04:03:19;6.32;;;2.65;;
19903;SDS011;10114;50.970;4.962;2023-04-15T04:05:45;6.97;;;3.08;;
19903;SDS011;10114;50.970;4.962;2023-04-15T04:08:11;11.45;;;2.60;;
19903;SDS011;10114;50.970;4.962;2023-04-15T04:10:41;7.53;;;2.85;;
19903;SDS011;10114;50.970;4.962;2023-04-15T04:13:07;7.18;;;2.97;;
19903;SDS011;10114;50.970;4.962;2023-04-15T04:15:33;8.27;;;3.20;;
19903;SDS011;10114;50.970;4.962;2023-04-15T04:17:59;8.63;;;2.70;;
19903;SDS011;10114;50.970;4.962;2023-04-15T04:20:25;12.00;;;3.58;;
19903;SDS011;10114;50.970;4.962;2023-04-15T04:22:51;7.22;;;2.95;;
19903;SDS011;10114;50.970;4.962;2023-04-15T04:25:17;7.80;;;3.22;;
19903;SDS011;10114;50.970;4.962;2023-04-15T04:27:43;12.05;;;3.17;;
19903;SDS011;10114;50.970;4.962;2023-04-15T04:30:09;8.93;;;3.20;;
19903;SDS011;10114;50.970;4.962;2023-04-15T04:32:36;7.65;;;2.97;;
19903;SDS011;10114;50.970;4.962;2023-04-15T04:35:02;9.20;;;3.13;;
19903;SDS011;10114;50.970;4.962;2023-04-15T04:37:29;8.68;;;3.08;;
19903;SDS011;10114;50.970;4.962;2023-04-15T04:39:55;9.10;;;3.03;;
19903;SDS011;10114;50.970;4.962;2023-04-15T04:42:21;8.35;;;3.05;;
19903;SDS011;10114;50.970;4.962;2023-04-15T04:44:47;8.50;;;2.97;;
19903;SDS011;10114;50.970;4.962;2023-04-15T04:47:13;9.02;;;3.45;;
19903;SDS011;10114;50.970;4.962;2023-04-15T04:49:39;7.00;;;2.75;;
19903;SDS011;10114;50.970;4.962;2023-04-15T04:52:05;7.63;;;3.35;;
19903;SDS011;10114;50.970;4.962;2023-04-15T04:54:31;7.80;;;2.60;;
19903;SDS011;10114;50.970;4.962;2023-04-15T04:56:57;8.75;;;3.00;;
19903;SDS011;10114;50.970;4.962;2023-04-15T04:59:24;8.98;;;2.95;;
19903;SDS011;10114;50.970;4.962;2023-04-15T05:01:50;8.52;;;2.40;;
19903;SDS011;10114;50.970;4.962;2023-04-15T05:04:16;7.70;;;3.00;;
19903;SDS011;10114;50.970;4.962;2023-04-15T05:06:42;7.65;;;2.83;;
19903;SDS011;10114;50.970;4.962;2023-04-15T05:09:08;6.32;;;2.42;;
19903;SDS011;10114;50.970;4.962;2023-04-15T05:11:34;8.88;;;2.67;;
19903;SDS011;10114;50.970;4.962;2023-04-15T05:14:00;8.25;;;2.75;;
19903;SDS011;10114;50.970;4.962;2023-04-15T05:16:26;8.25;;;3.20;;
19903;SDS011;10114;50.970;4.962;2023-04-15T05:18:52;8.95;;;3.30;;
19903;SDS011;10114;50.970;4.962;2023-04-15T05:21:19;9.90;;;4.05;;
19903;SDS011;10114;50.970;4.962;2023-04-15T05:23:45;12.43;;;4.40;;
19903;SDS011;10114;50.970;4.962;2023-04-15T05:26:11;9.10;;;4.68;;
19903;SDS011;10114;50.970;4.962;2023-04-15T05:28:37;10.13;;;4.57;;
19903;SDS011;10114;50.970;4.962;2023-04-15T05:31:03;12.95;;;4.45;;
19903;SDS011;10114;50.970;4.962;2023-04-15T05:33:31;12.20;;;4.70;;
19903;SDS011;10114;50.970;4.962;2023-04-15T05:35:57;12.77;;;5.07;;
19903;SDS011;10114;50.970;4.962;2023-04-15T05:38:23;12.48;;;4.40;;
19903;SDS011;10114;50.970;4.962;2023-04-15T05:40:49;11.45;;;4.63;;
19903;SDS011;10114;50.970;4.962;2023-04-15T05:43:15;9.05;;;4.05;;
19903;SDS011;10114;50.970;4.962;2023-04-15T05:45:41;11.73;;;4.32;;
19903;SDS011;10114;50.970;4.962;2023-04-15T05:48:07;9.57;;;4.15;;
19903;SDS011;10114;50.970;4.962;2023-04-15T05:50:33;11.35;;;4.63;;
19903;SDS011;10114;50.970;4.962;2023-04-15T05:52:59;9.73;;;5.00;;
19903;SDS011;10114;50.970;4.962;2023-04-15T05:55:26;11.13;;;4.57;;
19903;SDS011;10114;50.970;4.962;2023-04-15T05:57:52;9.57;;;4.22;;
19903;SDS011;10114;50.970;4.962;2023-04-15T06:00:18;11.18;;;5.30;;
19903;SDS011;10114;50.970;4.962;2023-04-15T06:02:44;12.13;;;4.90;;
19903;SDS011;10114;50.970;4.962;2023-04-15T06:05:10;9.70;;;4.05;;
19903;SDS011;10114;50.970;4.962;2023-04-15T06:07:36;11.82;;;4.38;;
19903;SDS011;10114;50.970;4.962;2023-04-15T06:10:03;9.63;;;4.55;;
19903;SDS011;10114;50.970;4.962;2023-04-15T06:12:29;12.52;;;5.05;;
19903;SDS011;10114;50.970;4.962;2023-04-15T06:14:55;11.10;;;4.80;;
19903;SDS011;10114;50.970;4.962;2023-04-15T06:17:22;11.68;;;4.82;;
19903;SDS011;10114;50.970;4.962;2023-04-15T06:19:48;11.15;;;4.82;;
19903;SDS011;10114;50.970;4.962;2023-04-15T06:22:19;15.30;;;5.50;;
19903;SDS011;10114;50.970;4.962;2023-04-15T06:24:45;15.93;;;5.10;;
19903;SDS011;10114;50.970;4.962;2023-04-15T06:27:12;12.38;;;5.50;;
19903;SDS011;10114;50.970;4.962;2023-04-15T06:29:38;9.82;;;4.72;;
19903;SDS011;10114;50.970;4.962;2023-04-15T06:32:04;14.32;;;5.35;;
19903;SDS011;10114;50.970;4.962;2023-04-15T06:34:30;13.05;;;5.60;;
19903;SDS011;10114;50.970;4.962;2023-04-15T06:36:56;13.73;;;4.90;;
19903;SDS011;10114;50.970;4.962;2023-04-15T06:39:22;11.70;;;5.30;;
19903;SDS011;10114;50.970;4.962;2023-04-15T06:41:48;11.20;;;5.07;;
19903;SDS011;10114;50.970;4.962;2023-04-15T06:44:14;16.83;;;5.70;;
19903;SDS011;10114;50.970;4.962;2023-04-15T06:46:40;13.48;;;5.57;;
19903;SDS011;10114;50.970;4.962;2023-04-15T06:49:06;15.15;;;5.57;;
19903;SDS011;10114;50.970;4.962;2023-04-15T06:51:33;12.93;;;5.88;;
19903;SDS011;10114;50.970;4.962;2023-04-15T06:54:00;16.55;;;6.30;;
19903;SDS011;10114;50.970;4.962;2023-04-15T06:56:26;12.23;;;6.60;;
19903;SDS011;10114;50.970;4.962;2023-04-15T06:58:52;12.30;;;5.95;;
19903;SDS011;10114;50.970;4.962;2023-04-15T07:01:18;13.25;;;6.20;;
19903;SDS011;10114;50.970;4.962;2023-04-15T07:03:45;18.33;;;5.47;;
19903;SDS011;10114;50.970;4.962;2023-04-15T07:06:11;16.05;;;6.32;;
19903;SDS011;10114;50.970;4.962;2023-04-15T07:08:38;16.98;;;6.50;;
19903;SDS011;10114;50.970;4.962;2023-04-15T07:11:04;16.27;;;7.90;;
19903;SDS011;10114;50.970;4.962;2023-04-15T07:13:30;12.75;;;7.47;;
19903;SDS011;10114;50.970;4.962;2023-04-15T07:15:57;17.42;;;7.70;;
19903;SDS011;10114;50.970;4.962;2023-04-15T07:18:23;15.18;;;7.60;;
19903;SDS011;10114;50.970;4.962;2023-04-15T07:20:49;17.63;;;7.28;;
19903;SDS011;10114;50.970;4.962;2023-04-15T07:23:15;16.10;;;6.68;;
19903;SDS011;10114;50.970;4.962;2023-04-15T07:25:42;13.60;;;7.85;;
19903;SDS011;10114;50.970;4.962;2023-04-15T07:28:08;15.20;;;7.15;;
19903;SDS011;10114;50.970;4.962;2023-04-15T07:30:34;17.77;;;8.23;;
19903;SDS011;10114;50.970;4.962;2023-04-15T07:33:00;21.38;;;8.55;;
19903;SDS011;10114;50.970;4.962;2023-04-15T07:35:27;19.80;;;7.53;;
19903;SDS011;10114;50.970;4.962;2023-04-15T07:37:53;14.23;;;7.32;;
19903;SDS011;10114;50.970;4.962;2023-04-15T07:40:20;15.68;;;7.65;;
19903;SDS011;10114;50.970;4.962;2023-04-15T07:42:46;17.70;;;8.35;;
19903;SDS011;10114;50.970;4.962;2023-04-15T07:45:13;14.40;;;8.43;;
19903;SDS011;10114;50.970;4.962;2023-04-15T07:47:40;13.25;;;8.05;;
19903;SDS011;10114;50.970;4.962;2023-04-15T07:50:06;23.77;;;8.40;;
19903;SDS011;10114;50.970;4.962;2023-04-15T07:52:32;20.10;;;8.05;;
19903;SDS011;10114;50.970;4.962;2023-04-15T07:55:03;26.17;;;8.18;;
19903;SDS011;10114;50.970;4.962;2023-04-15T07:57:31;16.75;;;8.63;;
19903;SDS011;10114;50.970;4.962;2023-04-15T07:59:57;17.58;;;8.40;;
19903;SDS011;10114;50.970;4.962;2023-04-15T08:02:23;16.65;;;8.60;;
19903;SDS011;10114;50.970;4.962;2023-04-15T08:04:49;18.58;;;8.52;;
19903;SDS011;10114;50.970;4.962;2023-04-15T08:07:15;22.40;;;9.18;;
19903;SDS011;10114;50.970;4.962;2023-04-15T08:09:42;17.52;;;8.43;;
19903;SDS011;10114;50.970;4.962;2023-04-15T08:12:08;21.63;;;9.05;;
19903;SDS011;10114;50.970;4.962;2023-04-15T08:14:37;19.15;;;8.63;;
19903;SDS011;10114;50.970;4.962;2023-04-15T08:17:03;16.58;;;7.60;;
19903;SDS011;10114;50.970;4.962;2023-04-15T08:19:29;19.48;;;6.85;;
19903;SDS011;10114;50.970;4.962;2023-04-15T08:21:55;11.43;;;5.57;;
19903;SDS011;10114;50.970;4.962;2023-04-15T08:24:22;14.90;;;6.57;;
19903;SDS011;10114;50.970;4.962;2023-04-15T08:26:48;10.88;;;6.18;;
19903;SDS011;10114;50.970;4.962;2023-04-15T08:29:14;14.45;;;7.05;;
19903;SDS011;10114;50.970;4.962;2023-04-15T08:31:40;14.00;;;6.15;;
19903;SDS011;10114;50.970;4.962;2023-04-15T08:34:06;14.52;;;7.07;;
19903;SDS011;10114;50.970;4.962;2023-04-15T08:36:33;13.10;;;7.05;;
19903;SDS011;10114;50.970;4.962;2023-04-15T08:38:59;16.67;;;7.15;;
19903;SDS011;10114;50.970;4.962;2023-04-15T08:41:26;15.63;;;6.97;;
19903;SDS011;10114;50.970;4.962;2023-04-15T08:44:02;16.23;;;6.35;;
19903;SDS011;10114;50.970;4.962;2023-04-15T08:46:31;15.98;;;5.72;;
19903;SDS011;10114;50.970;4.962;2023-04-15T08:48:58;11.93;;;5.63;;
19903;SDS011;10114;50.970;4.962;2023-04-15T08:51:25;11.65;;;5.90;;
19903;SDS011;10114;50.970;4.962;2023-04-15T08:53:51;11.45;;;6.05;;
19903;SDS011;10114;50.970;4.962;2023-04-15T08:56:17;14.52;;;5.55;;
19903;SDS011;10114;50.970;4.962;2023-04-15T08:58:44;12.57;;;6.13;;
19903;SDS011;10114;50.970;4.962;2023-04-15T09:01:11;9.63;;;4.95;;
19903;SDS011;10114;50.970;4.962;2023-04-15T09:03:38;9.75;;;5.75;;
19903;SDS011;10114;50.970;4.962;2023-04-15T09:06:04;14.60;;;6.18;;
19903;SDS011;10114;50.970;4.962;2023-04-15T09:08:31;8.23;;;4.82;;
19903;SDS011;10114;50.970;4.962;2023-04-15T09:10:58;12.68;;;5.18;;
19903;SDS011;10114;50.970;4.962;2023-04-15T09:13:24;14.20;;;5.75;;
19903;SDS011;10114;50.970;4.962;2023-04-15T09:15:50;9.50;;;4.30;;
19903;SDS011;10114;50.970;4.962;2023-04-15T09:18:29;10.90;;;5.35;;
19903;SDS011;10114;50.970;4.962;2023-04-15T09:20:55;12.80;;;5.68;;
19903;SDS011;10114;50.970;4.962;2023-04-15T09:23:29;10.55;;;4.88;;
19903;SDS011;10114;50.970;4.962;2023-04-15T09:25:56;11.00;;;4.90;;
19903;SDS011;10114;50.970;4.962;2023-04-15T09:28:22;7.57;;;4.43;;
19903;SDS011;10114;50.970;4.962;2023-04-15T09:30:50;7.20;;;3.97;;
19903;SDS011;10114;50.970;4.962;2023-04-15T09:33:16;12.40;;;4.65;;
19903;SDS011;10114;50.970;4.962;2023-04-15T09:35:47;9.38;;;4.20;;
19903;SDS011;10114;50.970;4.962;2023-04-15T09:38:21;12.13;;;4.40;;
19903;SDS011;10114;50.970;4.962;2023-04-15T09:40:46;9.23;;;4.05;;
19903;SDS011;10114;50.970;4.962;2023-04-15T09:43:12;9.75;;;4.93;;
19903;SDS011;10114;50.970;4.962;2023-04-15T09:45:46;9.30;;;4.05;;
19903;SDS011;10114;50.970;4.962;2023-04-15T09:48:16;9.52;;;4.32;;
19903;SDS011;10114;50.970;4.962;2023-04-15T09:50:44;7.28;;;4.13;;
19903;SDS011;10114;50.970;4.962;2023-04-15T09:53:14;8.85;;;4.03;;
19903;SDS011;10114;50.970;4.962;2023-04-15T09:55:43;10.02;;;4.53;;
19903;SDS011;10114;50.970;4.962;2023-04-15T09:58:16;11.38;;;4.15;;
19903;SDS011;10114;50.970;4.962;2023-04-15T10:00:42;10.93;;;4.30;;
19903;SDS011;10114;50.970;4.962;2023-04-15T10:03:08;7.45;;;4.00;;
19903;SDS011;10114;50.970;4.962;2023-04-15T10:05:35;9.77;;;3.17;;
19903;SDS011;10114;50.970;4.962;2023-04-15T10:08:02;8.82;;;3.38;;
19903;SDS011;10114;50.970;4.962;2023-04-15T10:10:28;7.13;;;3.25;;
19903;SDS011;10114;50.970;4.962;2023-04-15T10:12:54;7.82;;;3.95;;
19903;SDS011;10114;50.970;4.962;2023-04-15T10:15:21;6.50;;;3.55;;
19903;SDS011;10114;50.970;4.962;2023-04-15T10:17:48;9.88;;;4.38;;
19903;SDS011;10114;50.970;4.962;2023-04-15T10:20:15;9.18;;;4.07;;
19903;SDS011;10114;50.970;4.962;2023-04-15T10:22:42;7.03;;;3.95;;
19903;SDS011;10114;50.970;4.962;2023-04-15T10:25:09;7.03;;;3.50;;
19903;SDS011;10114;50.970;4.962;2023-04-15T10:27:38;9.55;;;4.40;;
19903;SDS011;10114;50.970;4.962;2023-04-15T10:30:06;8.68;;;3.83;;
19903;SDS011;10114;50.970;4.962;2023-04-15T10:32:33;10.10;;;4.18;;
19903;SDS011;10114;50.970;4.962;2023-04-15T10:34:59;9.02;;;4.13;;
19903;SDS011;10114;50.970;4.962;2023-04-15T10:37:32;8.20;;;3.10;;
19903;SDS011;10114;50.970;4.962;2023-04-15T10:39:59;4.88;;;2.20;;
19903;SDS011;10114;50.970;4.962;2023-04-15T10:42:32;6.07;;;2.50;;
19903;SDS011;10114;50.970;4.962;2023-04-15T10:44:59;8.18;;;2.90;;
19903;SDS011;10114;50.970;4.962;2023-04-15T10:47:25;8.68;;;3.15;;
19903;SDS011;10114;50.970;4.962;2023-04-15T10:49:59;7.28;;;2.53;;
19903;SDS011;10114;50.970;4.962;2023-04-15T10:52:29;6.22;;;2.33;;
19903;SDS011;10114;50.970;4.962;2023-04-15T10:55:01;5.70;;;3.13;;
19903;SDS011;10114;50.970;4.962;2023-04-15T10:57:33;5.88;;;2.95;;
19903;SDS011;10114;50.970;4.962;2023-04-15T11:00:01;6.93;;;3.63;;
19903;SDS011;10114;50.970;4.962;2023-04-15T11:02:37;9.27;;;2.95;;
19903;SDS011;10114;50.970;4.962;2023-04-15T11:05:04;6.07;;;2.60;;
19903;SDS011;10114;50.970;4.962;2023-04-15T11:13:04;7.35;;;2.47;;
19903;SDS011;10114;50.970;4.962;2023-04-15T11:15:32;3.70;;;1.65;;
19903;SDS011;10114;50.970;4.962;2023-04-15T11:18:07;9.50;;;1.98;;
19903;SDS011;10114;50.970;4.962;2023-04-15T11:20:33;5.70;;;2.10;;
19903;SDS011;10114;50.970;4.962;2023-04-15T11:23:00;3.20;;;1.30;;
19903;SDS011;10114;50.970;4.962;2023-04-15T11:25:30;3.90;;;1.30;;
19903;SDS011;10114;50.970;4.962;2023-04-15T11:27:57;3.67;;;1.63;;
19903;SDS011;10114;50.970;4.962;2023-04-15T11:30:24;5.57;;;1.73;;
19903;SDS011;10114;50.970;4.962;2023-04-15T11:32:51;5.15;;;1.77;;
19903;SDS011;10114;50.970;4.962;2023-04-15T11:35:17;2.95;;;1.25;;
19903;SDS011;10114;50.970;4.962;2023-04-15T11:37:44;3.55;;;1.50;;
19903;SDS011;10114;50.970;4.962;2023-04-15T11:40:10;8.45;;;2.15;;
19903;SDS011;10114;50.970;4.962;2023-04-15T11:42:37;2.50;;;1.27;;
19903;SDS011;10114;50.970;4.962;2023-04-15T11:45:10;4.07;;;1.50;;
19903;SDS011;10114;50.970;4.962;2023-04-15T11:47:37;6.32;;;1.73;;
19903;SDS011;10114;50.970;4.962;2023-04-15T11:52:40;4.57;;;1.42;;
19903;SDS011;10114;50.970;4.962;2023-04-15T11:55:06;6.47;;;1.75;;
19903;SDS011;10114;50.970;4.962;2023-04-15T11:57:33;6.32;;;2.03;;
19903;SDS011;10114;50.970;4.962;2023-04-15T12:00:00;4.07;;;2.10;;
19903;SDS011;10114;50.970;4.962;2023-04-15T12:02:35;5.90;;;2.15;;
19903;SDS011;10114;50.970;4.962;2023-04-15T12:05:07;4.70;;;1.40;;
19903;SDS011;10114;50.970;4.962;2023-04-15T12:07:56;2.90;;;0.95;;
19903;SDS011;10114;50.970;4.962;2023-04-15T12:10:19;3.47;;;1.17;;
19903;SDS011;10114;50.970;4.962;2023-04-15T12:12:48;3.78;;;1.27;;
19903;SDS011;10114;50.970;4.962;2023-04-15T12:15:14;4.78;;;1.33;;
19903;SDS011;10114;50.970;4.962;2023-04-15T12:17:40;2.95;;;1.20;;
19903;SDS011;10114;50.970;4.962;2023-04-15T12:20:06;3.70;;;1.00;;
19903;SDS011;10114;50.970;4.962;2023-04-15T12:22:36;1.98;;;0.80;;
19903;SDS011;10114;50.970;4.962;2023-04-15T12:25:02;3.10;;;1.35;;
19903;SDS011;10114;50.970;4.962;2023-04-15T12:27:28;3.67;;;1.00;;
19903;SDS011;10114;50.970;4.962;2023-04-15T12:30:02;2.60;;;1.08;;
19903;SDS011;10114;50.970;4.962;2023-04-15T12:32:29;3.55;;;1.27;;
19903;SDS011;10114;50.970;4.962;2023-04-15T12:34:55;4.25;;;1.27;;
19903;SDS011;10114;50.970;4.962;2023-04-15T12:37:22;3.13;;;1.20;;
19903;SDS011;10114;50.970;4.962;2023-04-15T12:39:48;2.28;;;1.05;;
19903;SDS011;10114;50.970;4.962;2023-04-15T12:42:15;3.33;;;1.10;;
19903;SDS011;10114;50.970;4.962;2023-04-15T12:44:41;3.25;;;1.13;;
19903;SDS011;10114;50.970;4.962;2023-04-15T12:47:08;2.17;;;1.00;;
19903;SDS011;10114;50.970;4.962;2023-04-15T12:49:34;3.75;;;1.30;;
19903;SDS011;10114;50.970;4.962;2023-04-15T12:52:01;4.10;;;1.70;;
19903;SDS011;10114;50.970;4.962;2023-04-15T12:54:29;4.95;;;1.50;;
19903;SDS011;10114;50.970;4.962;2023-04-15T12:56:55;4.85;;;1.35;;
19903;SDS011;10114;50.970;4.962;2023-04-15T12:59:22;3.28;;;1.58;;
19903;SDS011;10114;50.970;4.962;2023-04-15T13:01:48;6.25;;;1.60;;
19903;SDS011;10114;50.970;4.962;2023-04-15T13:04:15;2.90;;;1.30;;
19903;SDS011;10114;50.970;4.962;2023-04-15T13:06:42;6.60;;;1.73;;
19903;SDS011;10114;50.970;4.962;2023-04-15T13:09:08;3.88;;;1.40;;
19903;SDS011;10114;50.970;4.962;2023-04-15T13:11:34;3.53;;;1.25;;
19903;SDS011;10114;50.970;4.962;2023-04-15T13:14:04;6.20;;;1.75;;
19903;SDS011;10114;50.970;4.962;2023-04-15T13:16:30;4.15;;;1.63;;
19903;SDS011;10114;50.970;4.962;2023-04-15T13:19:00;20.90;;;1.58;;
19903;SDS011;10114;50.970;4.962;2023-04-15T13:21:26;3.03;;;1.05;;
19903;SDS011;10114;50.970;4.962;2023-04-15T13:23:53;3.90;;;1.30;;
19903;SDS011;10114;50.970;4.962;2023-04-15T13:26:19;3.83;;;1.50;;
19903;SDS011;10114;50.970;4.962;2023-04-15T13:28:46;2.67;;;1.20;;
19903;SDS011;10114;50.970;4.962;2023-04-15T13:31:12;2.80;;;1.45;;
19903;SDS011;10114;50.970;4.962;2023-04-15T13:33:38;6.75;;;1.50;;
19903;SDS011;10114;50.970;4.962;2023-04-15T13:36:04;2.97;;;1.42;;
19903;SDS011;10114;50.970;4.962;2023-04-15T13:38:30;5.57;;;1.40;;
19903;SDS011;10114;50.970;4.962;2023-04-15T13:40:57;5.57;;;1.80;;
19903;SDS011;10114;50.970;4.962;2023-04-15T13:43:23;9.73;;;1.70;;
19903;SDS011;10114;50.970;4.962;2023-04-15T13:45:49;5.15;;;1.77;;
19903;SDS011;10114;50.970;4.962;2023-04-15T13:48:15;3.35;;;1.40;;
19903;SDS011;10114;50.970;4.962;2023-04-15T13:50:41;5.50;;;1.42;;
19903;SDS011;10114;50.970;4.962;2023-04-15T13:53:09;4.93;;;1.55;;
19903;SDS011;10114;50.970;4.962;2023-04-15T13:55:35;3.38;;;1.50;;
19903;SDS011;10114;50.970;4.962;2023-04-15T13:58:05;5.00;;;1.35;;
19903;SDS011;10114;50.970;4.962;2023-04-15T14:00:31;7.15;;;1.33;;
19903;SDS011;10114;50.970;4.962;2023-04-15T14:02:57;4.00;;;1.20;;
19903;SDS011;10114;50.970;4.962;2023-04-15T14:05:23;2.67;;;1.00;;
19903;SDS011;10114;50.970;4.962;2023-04-15T14:07:49;2.15;;;0.80;;
19903;SDS011;10114;50.970;4.962;2023-04-15T14:10:15;3.05;;;1.15;;
19903;SDS011;10114;50.970;4.962;2023-04-15T14:12:41;2.97;;;1.25;;
19903;SDS011;10114;50.970;4.962;2023-04-15T14:15:07;6.38;;;1.88;;
19903;SDS011;10114;50.970;4.962;2023-04-15T14:17:33;6.10;;;1.80;;
19903;SDS011;10114;50.970;4.962;2023-04-15T14:20:00;4.75;;;1.67;;
19903;SDS011;10114;50.970;4.962;2023-04-15T14:22:26;5.53;;;1.63;;
19903;SDS011;10114;50.970;4.962;2023-04-15T14:24:52;9.77;;;2.17;;
19903;SDS011;10114;50.970;4.962;2023-04-15T14:27:19;3.75;;;1.70;;
19903;SDS011;10114;50.970;4.962;2023-04-15T14:29:45;4.40;;;1.60;;
19903;SDS011;10114;50.970;4.962;2023-04-15T14:32:11;5.95;;;1.55;;
19903;SDS011;10114;50.970;4.962;2023-04-15T14:34:37;4.85;;;1.67;;
19903;SDS011;10114;50.970;4.962;2023-04-15T14:37:04;4.13;;;1.60;;
19903;SDS011;10114;50.970;4.962;2023-04-15T14:39:30;4.50;;;2.08;;
19903;SDS011;10114;50.970;4.962;2023-04-15T14:41:56;5.15;;;2.13;;
19903;SDS011;10114;50.970;4.962;2023-04-15T14:44:22;4.55;;;1.60;;
19903;SDS011;10114;50.970;4.962;2023-04-15T14:46:48;4.20;;;1.50;;
19903;SDS011;10114;50.970;4.962;2023-04-15T14:49:14;3.50;;;1.50;;